sensor_id;sensor_type;location;lat;lon;timestamp;pressure;altitude;pressure_sealevel;temperature;humidity
71504;BME280;59323;50.874;7.028;2023-01-09T00:00:09;99241.75;;;7.56;94.94
71504;BME280;59323;50.874;7.028;2023-01-09T00:02:35;99235.53;;;7.49;95.44
71504;BME280;59323;50.874;7.028;2023-01-09T00:05:08;99246.34;;;7.49;95.99
71504;BME280;59323;50.874;7.028;2023-01-09T00:07:34;99244.44;;;7.49;95.76
71504;BME280;59323;50.874;7.028;2023-01-09T00:09:59;99223.94;;;7.41;95.11
71504;BME280;59323;50.874;7.028;2023-01-09T00:12:25;99232.81;;;7.38;95.61
71504;BME280;59323;50.874;7.028;2023-01-09T00:14:50;99238.56;;;7.33;96.34
71504;BME280;59323;50.874;7.028;2023-01-09T00:17:16;99235.88;;;7.33;96.59
71504;BME280;59323;50.874;7.028;2023-01-09T00:19:41;99236.63;;;7.30;97.80
71504;BME280;59323;50.874;7.028;2023-01-09T00:22:06;99222.31;;;7.22;97.54
71504;BME280;59323;50.874;7.028;2023-01-09T00:24:34;99239.69;;;7.25;96.06
71504;BME280;59323;50.874;7.028;2023-01-09T00:27:00;99233.88;;;7.19;96.46
71504;BME280;59323;50.874;7.028;2023-01-09T00:29:26;99228.06;;;7.17;96.91
71504;BME280;59323;50.874;7.028;2023-01-09T00:31:51;99243.91;;;7.22;96.81
71504;BME280;59323;50.874;7.028;2023-01-09T00:34:16;99242.34;;;7.18;97.63
71504;BME280;59323;50.874;7.028;2023-01-09T00:36:42;99243.53;;;7.20;97.07
71504;BME280;59323;50.874;7.028;2023-01-09T00:39:07;99235.78;;;7.15;97.23
71504;BME280;59323;50.874;7.028;2023-01-09T00:41:45;99237.28;;;7.13;96.92
71504;BME280;59323;50.874;7.028;2023-01-09T00:44:14;99242.31;;;7.14;97.37
71504;BME280;59323;50.874;7.028;2023-01-09T00:46:44;99241.13;;;7.12;97.61
71504;BME280;59323;50.874;7.028;2023-01-09T00:49:12;99239.53;;;7.04;97.79
71504;BME280;59323;50.874;7.028;2023-01-09T00:51:40;99239.94;;;7.06;97.99
71504;BME280;59323;50.874;7.028;2023-01-09T00:54:08;99243.41;;;7.06;98.18
71504;BME280;59323;50.874;7.028;2023-01-09T00:56:35;99252.28;;;7.07;98.08
71504;BME280;59323;50.874;7.028;2023-01-09T00:59:02;99246.09;;;7.03;97.57
71504;BME280;59323;50.874;7.028;2023-01-09T01:01:28;99250.69;;;6.98;98.04
71504;BME280;59323;50.874;7.028;2023-01-09T01:03:53;99252.28;;;7.07;98.19
71504;BME280;59323;50.874;7.028;2023-01-09T01:06:20;99262.31;;;7.06;96.75
71504;BME280;59323;50.874;7.028;2023-01-09T01:09:04;99261.13;;;7.00;96.26
71504;BME280;59323;50.874;7.028;2023-01-09T01:11:31;99258.41;;;6.96;95.78
71504;BME280;59323;50.874;7.028;2023-01-09T01:13:56;99266.16;;;7.02;95.87
71504;BME280;59323;50.874;7.028;2023-01-09T01:16:22;99267.31;;;7.00;96.08
71504;BME280;59323;50.874;7.028;2023-01-09T01:18:47;99264.94;;;6.92;96.46
71504;BME280;59323;50.874;7.028;2023-01-09T01:21:13;99267.66;;;6.95;95.76
71504;BME280;59323;50.874;7.028;2023-01-09T01:23:39;99273.47;;;6.97;95.19
71504;BME280;59323;50.874;7.028;2023-01-09T01:26:09;99255.69;;;6.93;95.90
71504;BME280;59323;50.874;7.028;2023-01-09T01:28:35;99273.06;;;6.95;95.38
71504;BME280;59323;50.874;7.028;2023-01-09T01:31:00;99272.25;;;6.91;94.97
71504;BME280;59323;50.874;7.028;2023-01-09T01:33:26;99255.66;;;6.89;95.24
71504;BME280;59323;50.874;7.028;2023-01-09T01:36:06;99268.00;;;6.90;95.34
71504;BME280;59323;50.874;7.028;2023-01-09T01:38:32;99268.72;;;6.84;95.34
71504;BME280;59323;50.874;7.028;2023-01-09T01:40:58;99271.03;;;6.82;95.41
71504;BME280;59323;50.874;7.028;2023-01-09T01:43:23;99277.22;;;6.82;95.04
71504;BME280;59323;50.874;7.028;2023-01-09T01:45:49;99271.81;;;6.82;94.41
71504;BME280;59323;50.874;7.028;2023-01-09T01:48:27;99279.09;;;6.78;95.34
71504;BME280;59323;50.874;7.028;2023-01-09T01:50:59;99278.34;;;6.81;95.70
71504;BME280;59323;50.874;7.028;2023-01-09T01:53:31;99281.03;;;6.78;95.38
71504;BME280;59323;50.874;7.028;2023-01-09T01:58:30;99284.47;;;6.75;94.95
71504;BME280;59323;50.874;7.028;2023-01-09T02:00:57;99289.09;;;6.74;95.05
71504;BME280;59323;50.874;7.028;2023-01-09T02:03:25;99283.66;;;6.67;94.64
71504;BME280;59323;50.874;7.028;2023-01-09T02:05:52;99292.53;;;6.67;95.16
71504;BME280;59323;50.874;7.028;2023-01-09T02:08:18;99298.69;;;6.68;95.31
71504;BME280;59323;50.874;7.028;2023-01-09T02:10:44;99302.19;;;6.72;95.33
71504;BME280;59323;50.874;7.028;2023-01-09T02:13:11;99288.25;;;6.63;95.23
71504;BME280;59323;50.874;7.028;2023-01-09T02:15:52;99294.03;;;6.65;94.93
71504;BME280;59323;50.874;7.028;2023-01-09T02:21:07;99293.66;;;6.66;95.54
71504;BME280;59323;50.874;7.028;2023-01-09T02:32:26;99304.38;;;6.56;94.38
71504;BME280;59323;50.874;7.028;2023-01-09T02:40:22;99303.50;;;6.48;95.17
71504;BME280;59323;50.874;7.028;2023-01-09T02:42:51;99296.91;;;6.42;95.22
71504;BME280;59323;50.874;7.028;2023-01-09T02:45:18;99296.16;;;6.45;95.82
71504;BME280;59323;50.874;7.028;2023-01-09T02:47:45;99303.44;;;6.41;96.14
71504;BME280;59323;50.874;7.028;2023-01-09T02:50:17;99303.81;;;6.40;95.75
71504;BME280;59323;50.874;7.028;2023-01-09T03:03:20;99338.50;;;6.41;96.46
71504;BME280;59323;50.874;7.028;2023-01-09T03:06:10;99340.50;;;6.48;96.04
71504;BME280;59323;50.874;7.028;2023-01-09T03:08:44;99340.06;;;6.42;96.14
71504;BME280;59323;50.874;7.028;2023-01-09T03:11:10;99346.66;;;6.45;95.72
71504;BME280;59323;50.874;7.028;2023-01-09T03:13:51;99347.03;;;6.47;95.84
71504;BME280;59323;50.874;7.028;2023-01-09T03:16:22;99338.94;;;6.47;95.09
71504;BME280;59323;50.874;7.028;2023-01-09T03:18:50;99348.59;;;6.48;94.97
71504;BME280;59323;50.874;7.028;2023-01-09T03:21:16;99340.84;;;6.43;94.06
71504;BME280;59323;50.874;7.028;2023-01-09T03:23:51;99352.78;;;6.42;94.22
71504;BME280;59323;50.874;7.028;2023-01-09T03:26:17;99351.22;;;6.41;93.82
71504;BME280;59323;50.874;7.028;2023-01-09T03:28:43;99359.31;;;6.41;94.03
71504;BME280;59323;50.874;7.028;2023-01-09T03:31:09;99349.19;;;6.30;94.21
71504;BME280;59323;50.874;7.028;2023-01-09T03:33:34;99356.50;;;6.30;93.54
71504;BME280;59323;50.874;7.028;2023-01-09T03:35:59;99361.91;;;6.30;94.68
71504;BME280;59323;50.874;7.028;2023-01-09T03:38:25;99362.25;;;6.25;94.32
71504;BME280;59323;50.874;7.028;2023-01-09T03:40:50;99364.94;;;6.25;94.60
71504;BME280;59323;50.874;7.028;2023-01-09T03:43:16;99360.66;;;6.20;94.59
71504;BME280;59323;50.874;7.028;2023-01-09T03:45:41;99370.63;;;6.16;94.83
71504;BME280;59323;50.874;7.028;2023-01-09T03:48:07;99390.69;;;6.19;94.45
71504;BME280;59323;50.874;7.028;2023-01-09T03:50:33;99387.53;;;6.13;94.64
71504;BME280;59323;50.874;7.028;2023-01-09T03:52:59;99381.72;;;6.11;95.23
71504;BME280;59323;50.874;7.028;2023-01-09T03:55:24;99389.81;;;6.11;94.39
71504;BME280;59323;50.874;7.028;2023-01-09T03:57:49;99377.81;;;6.05;94.80
71504;BME280;59323;50.874;7.028;2023-01-09T04:00:20;99386.63;;;6.02;95.13
71504;BME280;59323;50.874;7.028;2023-01-09T04:02:46;99379.22;;;5.95;94.96
71504;BME280;59323;50.874;7.028;2023-01-09T04:05:11;99397.38;;;5.98;94.53
71504;BME280;59323;50.874;7.028;2023-01-09T04:07:37;99380.31;;;5.91;94.86
71504;BME280;59323;50.874;7.028;2023-01-09T04:10:03;99383.81;;;5.91;94.88
71504;BME280;59323;50.874;7.028;2023-01-09T04:12:28;99384.09;;;5.86;94.98
71504;BME280;59323;50.874;7.028;2023-01-09T04:14:54;99384.94;;;5.90;95.62
71504;BME280;59323;50.874;7.028;2023-01-09T04:17:20;99385.56;;;5.84;94.63
71504;BME280;59323;50.874;7.028;2023-01-09T04:19:45;99394.09;;;5.86;94.73
71504;BME280;59323;50.874;7.028;2023-01-09T04:22:10;99379.00;;;5.81;94.92
71504;BME280;59323;50.874;7.028;2023-01-09T04:24:36;99382.72;;;5.73;94.71
71504;BME280;59323;50.874;7.028;2023-01-09T04:27:01;99389.31;;;5.76;94.83
71504;BME280;59323;50.874;7.028;2023-01-09T04:29:27;99396.22;;;5.73;94.92
71504;BME280;59323;50.874;7.028;2023-01-09T04:31:52;99397.31;;;5.68;94.85
71504;BME280;59323;50.874;7.028;2023-01-09T04:34:18;99401.44;;;5.62;95.19
71504;BME280;59323;50.874;7.028;2023-01-09T04:36:43;99419.19;;;5.63;94.93
71504;BME280;59323;50.874;7.028;2023-01-09T04:39:09;99404.00;;;5.52;95.32
71504;BME280;59323;50.874;7.028;2023-01-09T04:41:34;99421.41;;;5.58;95.65
71504;BME280;59323;50.874;7.028;2023-01-09T04:44:17;99431.31;;;5.50;95.35
71504;BME280;59323;50.874;7.028;2023-01-09T04:46:43;99434.72;;;5.47;95.31
71504;BME280;59323;50.874;7.028;2023-01-09T04:49:08;99432.34;;;5.42;95.65
71504;BME280;59323;50.874;7.028;2023-01-09T04:51:33;99432.38;;;5.46;94.82
71504;BME280;59323;50.874;7.028;2023-01-09T04:53:59;99438.19;;;5.48;94.81
71504;BME280;59323;50.874;7.028;2023-01-09T04:56:24;99426.59;;;5.44;94.78
71504;BME280;59323;50.874;7.028;2023-01-09T04:58:50;99440.94;;;5.51;93.29
71504;BME280;59323;50.874;7.028;2023-01-09T05:01:15;99426.63;;;5.47;93.94
71504;BME280;59323;50.874;7.028;2023-01-09T05:03:41;99433.28;;;5.53;93.74
71504;BME280;59323;50.874;7.028;2023-01-09T05:06:06;99439.13;;;5.59;92.80
71504;BME280;59323;50.874;7.028;2023-01-09T05:08:32;99435.28;;;5.60;93.48
71504;BME280;59323;50.874;7.028;2023-01-09T05:10:58;99441.47;;;5.60;92.60
71504;BME280;59323;50.874;7.028;2023-01-09T05:13:23;99441.47;;;5.60;92.49
71504;BME280;59323;50.874;7.028;2023-01-09T05:15:49;99433.75;;;5.59;91.82
71504;BME280;59323;50.874;7.028;2023-01-09T05:18:14;99446.91;;;5.64;92.12
71504;BME280;59323;50.874;7.028;2023-01-09T05:20:40;99450.78;;;5.66;92.71
71504;BME280;59323;50.874;7.028;2023-01-09T05:23:05;99440.00;;;5.66;92.08
71504;BME280;59323;50.874;7.028;2023-01-09T05:25:30;99445.88;;;5.72;90.55
71504;BME280;59323;50.874;7.028;2023-01-09T05:27:56;99438.91;;;5.71;90.13
71504;BME280;59323;50.874;7.028;2023-01-09T05:30:21;99442.44;;;5.75;88.64
71504;BME280;59323;50.874;7.028;2023-01-09T05:32:46;99441.34;;;5.80;88.49
71504;BME280;59323;50.874;7.028;2023-01-09T05:35:12;99437.22;;;5.86;88.35
71504;BME280;59323;50.874;7.028;2023-01-09T05:37:37;99446.28;;;5.97;89.18
71504;BME280;59323;50.874;7.028;2023-01-09T05:40:03;99445.84;;;5.95;88.37
71504;BME280;59323;50.874;7.028;2023-01-09T05:42:29;99451.66;;;5.97;88.44
71504;BME280;59323;50.874;7.028;2023-01-09T05:44:55;99450.09;;;5.96;88.95
71504;BME280;59323;50.874;7.028;2023-01-09T05:47:20;99444.31;;;5.94;89.10
71504;BME280;59323;50.874;7.028;2023-01-09T05:49:46;99453.63;;;6.00;89.93
71504;BME280;59323;50.874;7.028;2023-01-09T05:52:11;99457.88;;;6.01;88.75
71504;BME280;59323;50.874;7.028;2023-01-09T05:54:36;99457.94;;;6.04;88.86
71504;BME280;59323;50.874;7.028;2023-01-09T05:57:02;99459.13;;;6.07;89.07
71504;BME280;59323;50.874;7.028;2023-01-09T05:59:27;99466.94;;;6.16;88.75
71504;BME280;59323;50.874;7.028;2023-01-09T06:01:52;99462.38;;;6.20;88.55
71504;BME280;59323;50.874;7.028;2023-01-09T06:04:18;99448.41;;;6.14;88.47
71504;BME280;59323;50.874;7.028;2023-01-09T06:06:43;99457.34;;;6.18;88.30
71504;BME280;59323;50.874;7.028;2023-01-09T06:09:09;99455.47;;;6.22;87.96
71504;BME280;59323;50.874;7.028;2023-01-09T06:11:34;99446.59;;;6.22;87.80
71504;BME280;59323;50.874;7.028;2023-01-09T06:14:03;99462.13;;;6.32;87.70
71504;BME280;59323;50.874;7.028;2023-01-09T06:16:28;99450.47;;;6.24;87.71
71504;BME280;59323;50.874;7.028;2023-01-09T06:18:53;99462.44;;;6.27;87.38
71504;BME280;59323;50.874;7.028;2023-01-09T06:21:19;99472.09;;;6.28;87.36
71504;BME280;59323;50.874;7.028;2023-01-09T06:23:44;99469.44;;;6.31;86.62
71504;BME280;59323;50.874;7.028;2023-01-09T06:26:10;99475.56;;;6.28;88.83
71504;BME280;59323;50.874;7.028;2023-01-09T06:28:35;99492.50;;;6.25;89.36
71504;BME280;59323;50.874;7.028;2023-01-09T06:31:00;99475.84;;;6.20;88.28
71504;BME280;59323;50.874;7.028;2023-01-09T06:33:26;99487.47;;;6.24;88.61
71504;BME280;59323;50.874;7.028;2023-01-09T06:35:51;99484.00;;;6.23;88.27
71504;BME280;59323;50.874;7.028;2023-01-09T06:38:17;99491.41;;;6.30;88.64
71504;BME280;59323;50.874;7.028;2023-01-09T06:40:43;99485.94;;;6.26;88.60
71504;BME280;59323;50.874;7.028;2023-01-09T06:43:08;99482.88;;;6.28;88.52
71504;BME280;59323;50.874;7.028;2023-01-09T06:45:34;99498.75;;;6.33;88.90
71504;BME280;59323;50.874;7.028;2023-01-09T06:48:02;99485.22;;;6.29;88.53
71504;BME280;59323;50.874;7.028;2023-01-09T06:50:27;99499.53;;;6.33;88.13
71504;BME280;59323;50.874;7.028;2023-01-09T06:52:53;99489.88;;;6.32;87.73
71504;BME280;59323;50.874;7.028;2023-01-09T06:55:18;99489.84;;;6.29;88.22
71504;BME280;59323;50.874;7.028;2023-01-09T06:57:44;99497.25;;;6.35;88.80
71504;BME280;59323;50.874;7.028;2023-01-09T07:00:10;99491.03;;;6.31;88.84
71504;BME280;59323;50.874;7.028;2023-01-09T07:02:36;99497.94;;;6.29;89.18
71504;BME280;59323;50.874;7.028;2023-01-09T07:05:02;99495.69;;;6.34;88.43
71504;BME280;59323;50.874;7.028;2023-01-09T07:07:30;99503.41;;;6.36;88.08
71504;BME280;59323;50.874;7.028;2023-01-09T07:09:55;99495.31;;;6.36;89.08
71504;BME280;59323;50.874;7.028;2023-01-09T07:12:21;99498.06;;;6.40;88.34
71504;BME280;59323;50.874;7.028;2023-01-09T07:14:46;99488.81;;;6.41;88.31
71504;BME280;59323;50.874;7.028;2023-01-09T07:17:12;99494.63;;;6.43;89.03
71504;BME280;59323;50.874;7.028;2023-01-09T07:19:37;99486.50;;;6.39;89.00
71504;BME280;59323;50.874;7.028;2023-01-09T07:22:03;99502.31;;;6.41;88.89
71504;BME280;59323;50.874;7.028;2023-01-09T07:24:29;99480.31;;;6.39;89.12
71504;BME280;59323;50.874;7.028;2023-01-09T07:26:54;99493.44;;;6.40;89.25
71504;BME280;59323;50.874;7.028;2023-01-09T07:29:20;99491.16;;;6.42;89.13
71504;BME280;59323;50.874;7.028;2023-01-09T07:31:45;99498.09;;;6.43;89.77
71504;BME280;59323;50.874;7.028;2023-01-09T07:34:12;99494.22;;;6.41;89.74
71504;BME280;59323;50.874;7.028;2023-01-09T07:36:37;99493.84;;;6.42;90.07
71504;BME280;59323;50.874;7.028;2023-01-09T07:39:02;99495.41;;;6.43;89.75
71504;BME280;59323;50.874;7.028;2023-01-09T07:41:28;99494.69;;;6.46;89.06
71504;BME280;59323;50.874;7.028;2023-01-09T07:43:56;99496.66;;;6.49;89.21
71504;BME280;59323;50.874;7.028;2023-01-09T07:46:23;99503.25;;;6.52;89.87
71504;BME280;59323;50.874;7.028;2023-01-09T07:48:49;99508.75;;;6.59;89.55
71504;BME280;59323;50.874;7.028;2023-01-09T07:51:14;99517.66;;;6.63;89.00
71504;BME280;59323;50.874;7.028;2023-01-09T07:53:39;99518.75;;;6.58;89.65
71504;BME280;59323;50.874;7.028;2023-01-09T07:56:05;99509.88;;;6.58;90.34
71504;BME280;59323;50.874;7.028;2023-01-09T07:58:31;99511.44;;;6.59;90.27
71504;BME280;59323;50.874;7.028;2023-01-09T08:00:57;99518.03;;;6.61;89.78
71504;BME280;59323;50.874;7.028;2023-01-09T08:03:22;99516.09;;;6.62;90.41
71504;BME280;59323;50.874;7.028;2023-01-09T08:05:47;99518.41;;;6.60;90.25
71504;BME280;59323;50.874;7.028;2023-01-09T08:08:13;99524.56;;;6.60;90.50
71504;BME280;59323;50.874;7.028;2023-01-09T08:10:39;99526.16;;;6.65;90.16
71504;BME280;59323;50.874;7.028;2023-01-09T08:13:06;99532.34;;;6.65;90.34
71504;BME280;59323;50.874;7.028;2023-01-09T08:15:31;99537.78;;;6.69;89.50
71504;BME280;59323;50.874;7.028;2023-01-09T08:17:58;99539.34;;;6.70;90.09
71504;BME280;59323;50.874;7.028;2023-01-09T08:20:24;99549.41;;;6.73;90.33
71504;BME280;59323;50.874;7.028;2023-01-09T08:22:49;99531.59;;;6.68;90.54
71504;BME280;59323;50.874;7.028;2023-01-09T08:25:17;99542.06;;;6.74;89.64
71504;BME280;59323;50.874;7.028;2023-01-09T08:27:43;99533.97;;;6.74;89.92
71504;BME280;59323;50.874;7.028;2023-01-09T08:30:10;99525.88;;;6.74;89.62
71504;BME280;59323;50.874;7.028;2023-01-09T08:32:36;99537.88;;;6.76;89.92
71504;BME280;59323;50.874;7.028;2023-01-09T08:35:02;99544.00;;;6.73;90.82
71504;BME280;59323;50.874;7.028;2023-01-09T08:37:28;99552.50;;;6.75;91.13
71504;BME280;59323;50.874;7.028;2023-01-09T08:39:53;99551.38;;;6.76;91.12
71504;BME280;59323;50.874;7.028;2023-01-09T08:42:19;99551.78;;;6.78;91.20
71504;BME280;59323;50.874;7.028;2023-01-09T08:45:20;99549.47;;;6.80;90.92
71504;BME280;59323;50.874;7.028;2023-01-09T08:48:04;99557.63;;;6.84;90.44
71504;BME280;59323;50.874;7.028;2023-01-09T08:50:29;99539.47;;;6.81;91.29
71504;BME280;59323;50.874;7.028;2023-01-09T08:52:55;99548.00;;;6.86;90.64
71504;BME280;59323;50.874;7.028;2023-01-09T08:55:21;99534.50;;;6.86;89.10
71504;BME280;59323;50.874;7.028;2023-01-09T08:57:50;99539.22;;;6.93;89.18
71504;BME280;59323;50.874;7.028;2023-01-09T09:00:18;99549.31;;;6.99;89.58
71504;BME280;59323;50.874;7.028;2023-01-09T09:02:44;99543.16;;;6.99;89.67
71504;BME280;59323;50.874;7.028;2023-01-09T09:05:10;99557.06;;;7.01;90.54
71504;BME280;59323;50.874;7.028;2023-01-09T09:07:36;99550.09;;;7.00;90.00
71504;BME280;59323;50.874;7.028;2023-01-09T09:10:02;99555.47;;;6.96;89.62
71504;BME280;59323;50.874;7.028;2023-01-09T09:12:28;99560.13;;;6.99;89.58
71504;BME280;59323;50.874;7.028;2023-01-09T09:14:53;99567.06;;;7.00;90.32
71504;BME280;59323;50.874;7.028;2023-01-09T09:17:41;99565.13;;;6.97;90.20
71504;BME280;59323;50.874;7.028;2023-01-09T09:20:08;99569.41;;;7.02;90.08
71504;BME280;59323;50.874;7.028;2023-01-09T09:22:35;99571.69;;;7.00;89.58
71504;BME280;59323;50.874;7.028;2023-01-09T09:25:01;99572.13;;;7.02;89.60
71504;BME280;59323;50.874;7.028;2023-01-09T09:27:29;99581.41;;;7.05;89.72
71504;BME280;59323;50.874;7.028;2023-01-09T09:29:55;99573.22;;;6.97;89.93
71504;BME280;59323;50.874;7.028;2023-01-09T09:32:21;99580.53;;;6.97;89.82
71504;BME280;59323;50.874;7.028;2023-01-09T09:34:46;99587.91;;;7.00;89.81
71504;BME280;59323;50.874;7.028;2023-01-09T09:37:12;99594.50;;;7.03;90.10
71504;BME280;59323;50.874;7.028;2023-01-09T09:39:37;99592.56;;;7.03;89.72
71504;BME280;59323;50.874;7.028;2023-01-09T09:50:51;99614.75;;;7.16;89.29
71504;BME280;59323;50.874;7.028;2023-01-09T09:56:24;99618.72;;;7.25;88.00
71504;BME280;59323;50.874;7.028;2023-01-09T09:58:56;99619.13;;;7.27;87.79
71504;BME280;59323;50.874;7.028;2023-01-09T10:01:42;99631.94;;;7.34;87.96
71504;BME280;59323;50.874;7.028;2023-01-09T10:04:13;99625.75;;;7.34;87.83
71504;BME280;59323;50.874;7.028;2023-01-09T10:06:42;99629.31;;;7.41;87.60
71504;BME280;59323;50.874;7.028;2023-01-09T10:14:32;99631.41;;;7.58;85.95
71504;BME280;59323;50.874;7.028;2023-01-09T10:25:26;99624.09;;;7.59;85.83
71504;BME280;59323;50.874;7.028;2023-01-09T10:28:13;99615.25;;;7.66;85.50
71504;BME280;59323;50.874;7.028;2023-01-09T10:30:51;99621.84;;;7.68;85.21
71504;BME280;59323;50.874;7.028;2023-01-09T10:37:01;99635.81;;;7.74;87.33
71504;BME280;59323;50.874;7.028;2023-01-09T10:39:53;99639.25;;;7.71;87.33
71504;BME280;59323;50.874;7.028;2023-01-09T10:44:50;99636.97;;;7.73;86.53
71504;BME280;59323;50.874;7.028;2023-01-09T10:47:25;99635.44;;;7.75;85.18
71504;BME280;59323;50.874;7.028;2023-01-09T10:49:53;99637.38;;;7.75;85.07
71504;BME280;59323;50.874;7.028;2023-01-09T10:52:24;99640.88;;;7.79;84.89
71504;BME280;59323;50.874;7.028;2023-01-09T10:55:06;99633.97;;;7.81;84.24
71504;BME280;59323;50.874;7.028;2023-01-09T10:57:42;99636.31;;;7.83;84.37
71504;BME280;59323;50.874;7.028;2023-01-09T11:00:20;99636.69;;;7.81;85.08
71504;BME280;59323;50.874;7.028;2023-01-09T11:02:46;99636.31;;;7.83;84.56
71504;BME280;59323;50.874;7.028;2023-01-09T11:05:16;99640.16;;;7.82;85.35
71504;BME280;59323;50.874;7.028;2023-01-09T11:07:45;99635.97;;;7.88;84.47
71504;BME280;59323;50.874;7.028;2023-01-09T11:10:13;99639.47;;;7.92;83.75
71504;BME280;59323;50.874;7.028;2023-01-09T11:12:40;99636.41;;;7.93;83.55
71504;BME280;59323;50.874;7.028;2023-01-09T11:17:41;99632.91;;;7.89;83.33
71504;BME280;59323;50.874;7.028;2023-01-09T11:20:24;99640.25;;;7.92;82.73
71504;BME280;59323;50.874;7.028;2023-01-09T11:22:53;99637.56;;;7.92;82.38
71504;BME280;59323;50.874;7.028;2023-01-09T11:25:24;99639.88;;;7.94;82.24
71504;BME280;59323;50.874;7.028;2023-01-09T11:28:16;99647.22;;;7.93;82.18
71504;BME280;59323;50.874;7.028;2023-01-09T11:30:57;99643.47;;;8.05;79.32
71504;BME280;59323;50.874;7.028;2023-01-09T11:33:26;99653.94;;;8.10;80.23
71504;BME280;59323;50.874;7.028;2023-01-09T11:36:07;99646.97;;;8.09;80.18
71504;BME280;59323;50.874;7.028;2023-01-09T11:38:56;99635.34;;;8.05;80.45
71504;BME280;59323;50.874;7.028;2023-01-09T11:41:29;99655.91;;;8.13;81.06
71504;BME280;59323;50.874;7.028;2023-01-09T11:43:58;99659.75;;;8.12;80.68
71504;BME280;59323;50.874;7.028;2023-01-09T11:46:39;99661.72;;;8.15;79.72
71504;BME280;59323;50.874;7.028;2023-01-09T11:51:42;99661.28;;;8.10;79.67
71504;BME280;59323;50.874;7.028;2023-01-09T11:56:42;99672.09;;;8.10;81.09
71504;BME280;59323;50.874;7.028;2023-01-09T11:59:17;99670.53;;;8.09;80.03
71504;BME280;59323;50.874;7.028;2023-01-09T12:07:49;99690.66;;;8.11;79.01
71504;BME280;59323;50.874;7.028;2023-01-09T12:21:34;99698.28;;;7.99;79.43
71504;BME280;59323;50.874;7.028;2023-01-09T12:29:56;99688.25;;;7.99;79.57
71504;BME280;59323;50.874;7.028;2023-01-09T12:46:24;99714.59;;;8.06;80.06
71504;BME280;59323;50.874;7.028;2023-01-09T12:49:03;99715.38;;;8.10;78.76
71504;BME280;59323;50.874;7.028;2023-01-09T12:54:04;99710.72;;;8.07;78.68
71504;BME280;59323;50.874;7.028;2023-01-09T12:56:47;99717.63;;;8.01;78.47
71504;BME280;59323;50.874;7.028;2023-01-09T12:59:25;99722.25;;;8.00;78.52
71504;BME280;59323;50.874;7.028;2023-01-09T13:02:14;99729.19;;;7.98;79.32
71504;BME280;59323;50.874;7.028;2023-01-09T13:04:55;99728.34;;;7.90;79.59
71504;BME280;59323;50.874;7.028;2023-01-09T13:07:26;99737.69;;;7.96;79.65
71504;BME280;59323;50.874;7.028;2023-01-09T13:10:32;99738.16;;;8.05;79.39
71504;BME280;59323;50.874;7.028;2023-01-09T13:13:10;99742.16;;;8.18;78.90
71504;BME280;59323;50.874;7.028;2023-01-09T13:15:41;99745.69;;;8.26;78.74
71504;BME280;59323;50.874;7.028;2023-01-09T13:18:15;99724.03;;;8.26;78.67
71504;BME280;59323;50.874;7.028;2023-01-09T13:20:46;99735.75;;;8.34;78.62
71504;BME280;59323;50.874;7.028;2023-01-09T13:23:31;99750.09;;;8.38;78.12
71504;BME280;59323;50.874;7.028;2023-01-09T13:26:00;99747.78;;;8.40;77.99
71504;BME280;59323;50.874;7.028;2023-01-09T13:28:34;99750.47;;;8.36;78.00
71504;BME280;59323;50.874;7.028;2023-01-09T13:31:23;99757.03;;;8.35;78.36
71504;BME280;59323;50.874;7.028;2023-01-09T13:33:54;99761.69;;;8.38;78.06
71504;BME280;59323;50.874;7.028;2023-01-09T13:36:30;99769.81;;;8.38;78.00
71504;BME280;59323;50.874;7.028;2023-01-09T13:38:57;99773.66;;;8.37;77.86
71504;BME280;59323;50.874;7.028;2023-01-09T13:41:24;99770.19;;;8.37;78.09
71504;BME280;59323;50.874;7.028;2023-01-09T13:44:25;99778.63;;;8.32;78.31
71504;BME280;59323;50.874;7.028;2023-01-09T13:46:55;99783.59;;;8.26;79.10
71504;BME280;59323;50.874;7.028;2023-01-09T13:52:33;99788.63;;;8.27;78.53
71504;BME280;59323;50.874;7.028;2023-01-09T14:02:54;99805.22;;;8.26;78.40
71504;BME280;59323;50.874;7.028;2023-01-09T14:08:02;99816.75;;;8.19;79.41
71504;BME280;59323;50.874;7.028;2023-01-09T14:10:32;99823.28;;;8.15;79.59
71504;BME280;59323;50.874;7.028;2023-01-09T14:13:05;99817.81;;;8.08;79.65
71504;BME280;59323;50.874;7.028;2023-01-09T14:15:40;99841.44;;;8.14;79.04
71504;BME280;59323;50.874;7.028;2023-01-09T14:18:24;99845.69;;;8.12;79.43
71504;BME280;59323;50.874;7.028;2023-01-09T14:23:37;99847.53;;;8.04;80.23
71504;BME280;59323;50.874;7.028;2023-01-09T14:26:05;99850.56;;;7.99;80.68
71504;BME280;59323;50.874;7.028;2023-01-09T14:28:32;99867.56;;;8.00;80.63
71504;BME280;59323;50.874;7.028;2023-01-09T14:33:27;99856.69;;;7.96;80.33
71504;BME280;59323;50.874;7.028;2023-01-09T14:36:16;99875.22;;;7.94;80.88
71504;BME280;59323;50.874;7.028;2023-01-09T14:38:55;99874.41;;;7.90;81.14
71504;BME280;59323;50.874;7.028;2023-01-09T14:41:29;99881.31;;;7.87;80.90
71504;BME280;59323;50.874;7.028;2023-01-09T14:44:47;99895.22;;;7.86;81.12
71504;BME280;59323;50.874;7.028;2023-01-09T14:47:35;99891.97;;;7.77;81.83
71504;BME280;59323;50.874;7.028;2023-01-09T14:50:05;99907.00;;;7.74;81.99
71504;BME280;59323;50.874;7.028;2023-01-09T14:56:01;99923.53;;;7.69;82.19
71504;BME280;59323;50.874;7.028;2023-01-09T14:58:29;99928.16;;;7.69;82.34
71504;BME280;59323;50.874;7.028;2023-01-09T15:01:07;99929.31;;;7.68;81.89
71504;BME280;59323;50.874;7.028;2023-01-09T15:03:56;99939.00;;;7.69;81.99
71504;BME280;59323;50.874;7.028;2023-01-09T15:06:26;99932.38;;;7.66;81.90
71504;BME280;59323;50.874;7.028;2023-01-09T15:08:56;99945.53;;;7.68;82.37
71504;BME280;59323;50.874;7.028;2023-01-09T15:11:24;99944.28;;;7.61;82.22
71504;BME280;59323;50.874;7.028;2023-01-09T15:13:51;99958.22;;;7.63;82.23
71504;BME280;59323;50.874;7.028;2023-01-09T15:16:19;99969.41;;;7.62;82.02
71504;BME280;59323;50.874;7.028;2023-01-09T15:18:48;99970.06;;;7.55;82.48
71504;BME280;59323;50.874;7.028;2023-01-09T15:21:25;99978.25;;;7.59;81.94
71504;BME280;59323;50.874;7.028;2023-01-09T15:23:51;99981.63;;;7.52;82.23
71504;BME280;59323;50.874;7.028;2023-01-09T15:26:29;99995.19;;;7.56;82.60
71504;BME280;59323;50.874;7.028;2023-01-09T15:29:12;99995.06;;;7.49;82.45
71504;BME280;59323;50.874;7.028;2023-01-09T15:31:41;100005.16;;;7.52;82.17